< < Back
Terminal Aerodrome Forecast


Current Version              Previous Versions:   1  2  3  4  5  6  7  8  9  

Terminal Aerodrome Forecast

196
FTUS44 KBMX 010804 AAB
TAFANB
TAF AMD
KANB 010804Z 0108/0206 25004KT P6SM BKN023 BKN028
     FM010900 00000KT P6SM BKN007
     FM011400 24008KT P6SM SCT015
     FM011800 26010KT P6SM VCTS SCT050CB BKN250
     FM020000 25006KT P6SM OVC250=

Latest METAR

800
SAUS70 KWBC 011200 RRU
MTRANB
METAR KANB 011153Z AUTO 22005KT 7SM OVC009 23/20 A3005 RMK AO2 SLP166
70005 T02280200 10228 20194 53006


USA.gov is the U.S. government's official web portal to all federal, state and local government web resources and services.